Spring Creek, Texas
Current Conditions -  °F | °C
As of 4:55 AM on Friday 28 Nov 2014 (Local Time) from KT82 Reporting Station
Overcast Overcast  
Wind Chill: 46°   Ceiling: 1200
Heat Index: 46°   Visibility: 10mi
Dew Point: 41°   Wind: 0mph
Humidity: 81%   Direction: NA
Pressure: 30.3"   Gusts: NA
Location:  30.3069°N, 98.8978°W
Report Text: KT82 281055Z AUTO 00000KT 10SM OVC012 08/05 A3030 RMK AO2 T00800050
Loading
Personal Weather Stations






























Interactive Weather Map New forecast layout! Learn more

10-Day Weather Forecast

Advertisements
Track Severe Weather on mobile